Daydream Believer — V7XJ3 — position and weather

sailwx.info

Track history (hours):
 
Tides and Currents Weather Stations Pressure Air Temp Water Temp Dewpoint Dewpoint Depression Visibility Wind Speed Wind Dir Waves Ship Positions

Daydream Believer

Last reported at 2015-Mar-31 01:31 UTC. Time now 2015-Mar-31 02:01 UTC.
Position N 37°45' W 122°20'.

Length 178 m; draft 6.8 m.

Type: Cargo ship. MMSI: 538004493.

Date/timePositionNaut miles runAvg speedWind from/ knotsBaromVisibWave heightAir tempDewpointWater temp
2015-Mar-31 01:31N 37°45' W 122°20'0 0.1
2015-Mar-31 00:31N 37°45' W 122°20'0 0.0
2015-Mar-30 23:31N 37°45' W 122°20'0 0.1
2015-Mar-30 22:31N 37°45' W 122°20'0 0.0
2015-Mar-30 21:31N 37°45' W 122°20'0 0.0
2015-Mar-30 20:31N 37°45' W 122°20'0 0.0
2015-Mar-30 19:31N 37°45' W 122°20'0 0.0
2015-Mar-30 18:31N 37°45' W 122°20'0 0.1
2015-Mar-30 17:31N 37°45' W 122°20'0 0.1
2015-Mar-30 16:31N 37°45' W 122°20'0 0.1
2015-Mar-30 15:31N 37°45' W 122°20'0 0.1
2015-Mar-30 14:31N 37°45' W 122°20'0 0.0
2015-Mar-30 13:31N 37°45' W 122°20'0 0.0
2015-Mar-30 12:31N 37°45' W 122°20'0 0.2
2015-Mar-30 11:31N 37°45' W 122°20'0 0.0
2015-Mar-30 10:31N 37°45' W 122°20'0 0.0
2015-Mar-30 09:31N 37°45' W 122°20'0 0.0
2015-Mar-30 08:31N 37°45' W 122°20'0 0.0
2015-Mar-30 07:31N 37°45' W 122°20'0 0.1
2015-Mar-30 06:31N 37°45' W 122°20'0 0.1
2015-Mar-30 05:31N 37°45' W 122°20'0 0.0
2015-Mar-30 04:31N 37°45' W 122°20'0 0.0
2015-Mar-30 03:31N 37°45' W 122°20'0 0.0
2015-Mar-30 02:31N 37°45' W 122°20'0 0.0
2015-Mar-30 01:31N 37°45' W 122°20'0 0.0
2015-Mar-30 00:28N 37°45' W 122°20'0 0.0
2015-Mar-29 23:31N 37°45' W 122°20'0 0.1
2015-Mar-29 22:31N 37°45' W 122°20'0 0.1
2015-Mar-29 21:31N 37°45' W 122°20'0 0.0
2015-Mar-29 20:31N 37°45' W 122°20'0 0.0
2015-Mar-29 19:31N 37°45' W 122°20'0 0.0
2015-Mar-29 18:31N 37°45' W 122°20'0 0.0
2015-Mar-29 17:31N 37°45' W 122°20'0 0.1
2015-Mar-29 16:31N 37°45' W 122°21'0 0.2
2015-Mar-29 15:31N 37°45' W 122°20'0 0.0
2015-Mar-29 14:31N 37°45' W 122°20'0 0.0
2015-Mar-29 13:31N 37°45' W 122°20'0 0.0
2015-Mar-29 12:31N 37°45' W 122°20'0 0.1
2015-Mar-29 11:31N 37°45' W 122°20'0 0.1
2015-Mar-29 10:31N 37°45' W 122°20'0 0.0
2015-Mar-29 09:31N 37°45' W 122°20'0 0.0
2015-Mar-29 08:31N 37°45' W 122°20'0 0.0
2015-Mar-29 07:31N 37°45' W 122°20'0 0.0
2015-Mar-29 06:31N 37°45' W 122°20'0 0.1
2015-Mar-29 05:31N 37°45' W 122°20'0 0.1
2015-Mar-29 04:31N 37°45' W 122°20'0 0.0
2015-Mar-29 03:31N 37°45' W 122°20'0 0.0
2015-Mar-29 02:31N 37°45' W 122°20'0 0.0
2015-Mar-29 01:31N 37°45' W 122°20'0 0.0
2015-Mar-29 00:31N 37°45' W 122°20'0 0.0
2015-Mar-28 23:31N 37°45' W 122°20'0 0.2
2015-Mar-28 22:33N 37°45' W 122°20'8 8.2
2015-Mar-28 21:33N 37°49' W 122°29'1111.4
2015-Mar-28 20:33N 37°44' W 122°42'1110.7
2015-Mar-28 19:33N 37°38' W 122°53'1111.1
2015-Mar-28 18:33N 37°32' W 123°05'1110.7
2015-Mar-28 17:33N 37°28' W 123°17'1212.1
2015-Mar-28 16:33N 37°28' W 123°33'1211.8
2015-Mar-28 15:32N 37°28' W 123°48'1211.8
2015-Mar-28 14:33N 37°28' W 124°02'1211.6
2015-Mar-28 13:33N 37°28' W 124°17'8 7.9
2015-Mar-28 12:33N 37°28' W 124°27'6 5.6
2015-Mar-28 11:33N 37°28' W 124°34'8 8.3
2015-Mar-28 10:33N 37°29' W 124°44'11 9.7
2015-Mar-28 09:24N 37°29' W 124°59'9 9.8
2015-Mar-28 08:31N 37°29' W 125°09'  
Track history (hours):
 
Tides and Currents Weather Stations Pressure Air Temp Water Temp Dewpoint Dewpoint Depression Visibility Wind Speed Wind Dir Waves Ship Positions

Daydream Believer

Last reported at 2015-Mar-31 01:31 UTC. Time now 2015-Mar-31 02:01 UTC.
Position N 37°45' W 122°20'.

Length 178 m; draft 6.8 m.

Type: Cargo ship. MMSI: 538004493.

Date/timePositionNaut miles runAvg speedWind from/ knotsBaromVisibWave heightAir tempDewpointWater temp
2015-Mar-31 01:31N 37°45' W 122°20'0 0.1
2015-Mar-31 00:31N 37°45' W 122°20'0 0.0
2015-Mar-30 23:31N 37°45' W 122°20'0 0.1
2015-Mar-30 22:31N 37°45' W 122°20'0 0.0
2015-Mar-30 21:31N 37°45' W 122°20'0 0.0
2015-Mar-30 20:31N 37°45' W 122°20'0 0.0
2015-Mar-30 19:31N 37°45' W 122°20'0 0.0
2015-Mar-30 18:31N 37°45' W 122°20'0 0.1
2015-Mar-30 17:31N 37°45' W 122°20'0 0.1
2015-Mar-30 16:31N 37°45' W 122°20'0 0.1
2015-Mar-30 15:31N 37°45' W 122°20'0 0.1
2015-Mar-30 14:31N 37°45' W 122°20'0 0.0
2015-Mar-30 13:31N 37°45' W 122°20'0 0.0
2015-Mar-30 12:31N 37°45' W 122°20'0 0.2
2015-Mar-30 11:31N 37°45' W 122°20'0 0.0
2015-Mar-30 10:31N 37°45' W 122°20'0 0.0
2015-Mar-30 09:31N 37°45' W 122°20'0 0.0
2015-Mar-30 08:31N 37°45' W 122°20'0 0.0
2015-Mar-30 07:31N 37°45' W 122°20'0 0.1
2015-Mar-30 06:31N 37°45' W 122°20'0 0.1
2015-Mar-30 05:31N 37°45' W 122°20'0 0.0
2015-Mar-30 04:31N 37°45' W 122°20'0 0.0
2015-Mar-30 03:31N 37°45' W 122°20'0 0.0
2015-Mar-30 02:31N 37°45' W 122°20'0 0.0
2015-Mar-30 01:31N 37°45' W 122°20'0 0.0
2015-Mar-30 00:28N 37°45' W 122°20'0 0.0
2015-Mar-29 23:31N 37°45' W 122°20'0 0.1
2015-Mar-29 22:31N 37°45' W 122°20'0 0.1
2015-Mar-29 21:31N 37°45' W 122°20'0 0.0
2015-Mar-29 20:31N 37°45' W 122°20'0 0.0
2015-Mar-29 19:31N 37°45' W 122°20'0 0.0
2015-Mar-29 18:31N 37°45' W 122°20'0 0.0
2015-Mar-29 17:31N 37°45' W 122°20'0 0.1
2015-Mar-29 16:31N 37°45' W 122°21'0 0.2
2015-Mar-29 15:31N 37°45' W 122°20'0 0.0
2015-Mar-29 14:31N 37°45' W 122°20'0 0.0
2015-Mar-29 13:31N 37°45' W 122°20'0 0.0
2015-Mar-29 12:31N 37°45' W 122°20'0 0.1
2015-Mar-29 11:31N 37°45' W 122°20'0 0.1
2015-Mar-29 10:31N 37°45' W 122°20'0 0.0
2015-Mar-29 09:31N 37°45' W 122°20'0 0.0
2015-Mar-29 08:31N 37°45' W 122°20'0 0.0
2015-Mar-29 07:31N 37°45' W 122°20'0 0.0
2015-Mar-29 06:31N 37°45' W 122°20'0 0.1
2015-Mar-29 05:31N 37°45' W 122°20'0 0.1
2015-Mar-29 04:31N 37°45' W 122°20'0 0.0
2015-Mar-29 03:31N 37°45' W 122°20'0 0.0
2015-Mar-29 02:31N 37°45' W 122°20'0 0.0
2015-Mar-29 01:31N 37°45' W 122°20'0 0.0
2015-Mar-29 00:31N 37°45' W 122°20'0 0.0
2015-Mar-28 23:31N 37°45' W 122°20'0 0.2
2015-Mar-28 22:33N 37°45' W 122°20'8 8.2
2015-Mar-28 21:33N 37°49' W 122°29'1111.4
2015-Mar-28 20:33N 37°44' W 122°42'1110.7
2015-Mar-28 19:33N 37°38' W 122°53'1111.1
2015-Mar-28 18:33N 37°32' W 123°05'1110.7
2015-Mar-28 17:33N 37°28' W 123°17'1212.1
2015-Mar-28 16:33N 37°28' W 123°33'1211.8
2015-Mar-28 15:32N 37°28' W 123°48'1211.8
2015-Mar-28 14:33N 37°28' W 124°02'1211.6
2015-Mar-28 13:33N 37°28' W 124°17'8 7.9
2015-Mar-28 12:33N 37°28' W 124°27'6 5.6
2015-Mar-28 11:33N 37°28' W 124°34'8 8.3
2015-Mar-28 10:33N 37°29' W 124°44'11 9.7
2015-Mar-28 09:24N 37°29' W 124°59'9 9.8
2015-Mar-28 08:31N 37°29' W 125°09'  

Dump ship's entire track history